Belle Chasse — WDG2912 — position and weather

sailwx.info

Track history (hours):
 
Tides and Currents Weather Stations Pressure Air Temp Water Temp Dewpoint Dewpoint Depression Visibility Wind Speed Wind Dir Waves Ship Positions

Belle Chasse

Owner: Higman Barge Lines, Inc, Orange, TX. More information available from US FCC via Universal Licensing System and Coast Guard Vessel Documentation Center.

Last reported at 2015-Mar-26 09:19 UTC. Time now 2015-Mar-29 06:06 UTC.
Position N 29°36' W 090°58'.

Length 26 m; draft 3 m.

Type: Towing. MMSI: 367520550.

Date/timePositionNaut miles runAvg speedWind from/ knotsBaromVisibWave heightAir tempDewpointWater temp
2015-Mar-26 09:19N 29°36' W 090°58'4 5.4
2015-Mar-26 08:30N 29°33' W 090°54'5 5.4
2015-Mar-26 07:34N 29°32' W 090°49'4 4.4
2015-Mar-26 06:34N 29°34' W 090°44'3 3.1
2015-Mar-26 05:34N 29°37' W 090°42'1 1.5
2015-Mar-26 04:33N 29°36' W 090°41'4 3.8
2015-Mar-26 03:33N 29°35' W 090°37'5 4.6
2015-Mar-26 02:33N 29°34' W 090°32'28 3.5
2015-Mar-25 18:30N 29°48' W 090°04'5 4.6
2015-Mar-25 17:25N 29°52' W 090°01'4 1.3
2015-Mar-25 14:07N 29°55' W 089°57'0 0.0
2015-Mar-25 07:12N 29°55' W 089°57'0 0.0
2015-Mar-25 06:21N 29°55' W 089°57'0 0.0
2015-Mar-25 03:22N 29°55' W 089°57'  
Track history (hours):
 
Tides and Currents Weather Stations Pressure Air Temp Water Temp Dewpoint Dewpoint Depression Visibility Wind Speed Wind Dir Waves Ship Positions

Belle Chasse

Owner: Higman Barge Lines, Inc, Orange, TX. More information available from US FCC via Universal Licensing System and Coast Guard Vessel Documentation Center.

Last reported at 2015-Mar-26 09:19 UTC. Time now 2015-Mar-29 06:06 UTC.
Position N 29°36' W 090°58'.

Length 26 m; draft 3 m.

Type: Towing. MMSI: 367520550.

Date/timePositionNaut miles runAvg speedWind from/ knotsBaromVisibWave heightAir tempDewpointWater temp
2015-Mar-26 09:19N 29°36' W 090°58'4 5.4
2015-Mar-26 08:30N 29°33' W 090°54'5 5.4
2015-Mar-26 07:34N 29°32' W 090°49'4 4.4
2015-Mar-26 06:34N 29°34' W 090°44'3 3.1
2015-Mar-26 05:34N 29°37' W 090°42'1 1.5
2015-Mar-26 04:33N 29°36' W 090°41'4 3.8
2015-Mar-26 03:33N 29°35' W 090°37'5 4.6
2015-Mar-26 02:33N 29°34' W 090°32'28 3.5
2015-Mar-25 18:30N 29°48' W 090°04'5 4.6
2015-Mar-25 17:25N 29°52' W 090°01'4 1.3
2015-Mar-25 14:07N 29°55' W 089°57'0 0.0
2015-Mar-25 07:12N 29°55' W 089°57'0 0.0
2015-Mar-25 06:21N 29°55' W 089°57'0 0.0
2015-Mar-25 03:22N 29°55' W 089°57'  

Dump ship's entire track history